Kitty C — 2EIQ6 — position and weather

sailwx.info

Track history (hours):
 
Tides and Currents Weather Stations Pressure Air Temp Water Temp Dewpoint Dewpoint Depression Visibility Wind Speed Wind Dir Waves Ship Positions

Kitty C

Last reported at 2016-Aug-23 19:12 UTC. Time now 2016-Aug-24 18:00 UTC.
Position N 41°09' W 008°45'.

Length 106 m; draft 6.9 m.

Type: Cargo ship. MMSI: 235085464.

Date/timePositionNaut miles runAvg speedWind from/ knotsBaromVisibWave heightAir tempDewpointWater temp
2016-Aug-23 19:12N 41°09' W 008°45'0 0.0
2016-Aug-23 18:30N 41°09' W 008°45'  
2016-Aug-21 00:21N 46°54' W 002°54'6 7.4
2016-Aug-20 23:33N 46°57' W 002°47'8 7.9
2016-Aug-20 22:33N 47°02' W 002°37'9 9.0
2016-Aug-20 21:34N 47°05' W 002°25'8 8.2
2016-Aug-20 20:34N 47°12' W 002°18'1110.9
2016-Aug-20 19:33N 47°18' W 002°05'1010.1
2016-Aug-20 18:34N 47°15' W 001°51'7 7.3
2016-Aug-20 17:34N 47°12' W 001°41'3 2.8
2016-Aug-20 16:28N 47°12' W 001°36'0 0.0
2016-Aug-20 15:31N 47°12' W 001°36'0 0.0
2016-Aug-20 14:31N 47°12' W 001°36'0 0.0
2016-Aug-20 13:31N 47°12' W 001°36'0 0.0
2016-Aug-20 12:31N 47°12' W 001°36'0 0.0
2016-Aug-20 11:31N 47°12' W 001°36'0 0.0
2016-Aug-20 10:31N 47°12' W 001°36'0 0.0
2016-Aug-20 09:31N 47°12' W 001°36'0 0.0
2016-Aug-20 08:31N 47°12' W 001°36'0 0.0
2016-Aug-20 07:31N 47°12' W 001°36'0 0.0
2016-Aug-20 06:31N 47°12' W 001°36'0 0.0
2016-Aug-20 05:32N 47°12' W 001°36'0 0.0
2016-Aug-20 04:28N 47°12' W 001°36'0 0.0
2016-Aug-20 03:31N 47°12' W 001°36'0 0.0
2016-Aug-20 02:31N 47°12' W 001°36'0 0.0
2016-Aug-20 01:31N 47°12' W 001°36'0 0.0
2016-Aug-20 00:31N 47°12' W 001°36'0 0.0
2016-Aug-19 23:31N 47°12' W 001°36'0 0.0
2016-Aug-19 22:31N 47°12' W 001°36'0 0.0
2016-Aug-19 21:31N 47°12' W 001°36'0 0.0
2016-Aug-19 20:31N 47°12' W 001°36'0 0.0
2016-Aug-19 19:31N 47°12' W 001°36'0 0.0
2016-Aug-19 18:31N 47°12' W 001°36'0 0.0
2016-Aug-19 17:31N 47°12' W 001°36'0 0.0
2016-Aug-19 16:31N 47°12' W 001°36'0 0.0
2016-Aug-19 15:28N 47°12' W 001°36'0 0.0
2016-Aug-19 14:28N 47°12' W 001°36'0 0.0
2016-Aug-19 13:28N 47°12' W 001°36'0 0.0
2016-Aug-19 12:28N 47°12' W 001°36'0 0.0
2016-Aug-19 11:31N 47°12' W 001°36'0 0.0
2016-Aug-19 10:25N 47°12' W 001°36'0 0.0
2016-Aug-19 09:19N 47°12' W 001°36'0 0.0
2016-Aug-19 08:31N 47°12' W 001°36'0 0.0
2016-Aug-19 07:31N 47°12' W 001°36'0 0.0
2016-Aug-19 06:31N 47°12' W 001°36'0 0.0
2016-Aug-19 05:31N 47°12' W 001°36'0 0.0
2016-Aug-19 04:31N 47°12' W 001°36'0 0.0
2016-Aug-19 03:32N 47°12' W 001°36'0 0.0
2016-Aug-19 02:31N 47°12' W 001°36'0 0.0
2016-Aug-19 01:31N 47°12' W 001°36'0 0.0
2016-Aug-19 00:31N 47°12' W 001°36'0 0.0
2016-Aug-18 23:31N 47°12' W 001°36'0 0.0
2016-Aug-18 22:31N 47°12' W 001°36'0 0.0
2016-Aug-18 21:31N 47°12' W 001°36'0 0.0
2016-Aug-18 20:31N 47°12' W 001°36'0 0.0
2016-Aug-18 19:31N 47°12' W 001°36'0 0.0
2016-Aug-18 18:28N 47°12' W 001°36'0 0.0
2016-Aug-18 17:22N 47°12' W 001°36'0 0.0
2016-Aug-18 15:28N 47°12' W 001°36'1 0.5
2016-Aug-18 13:32N 47°12' W 001°38'10 9.9
2016-Aug-18 12:33N 47°15' W 001°51'1211.9
2016-Aug-18 11:33N 47°18' W 002°08'1111.4
2016-Aug-18 10:33N 47°09' W 002°19'5 4.6
2016-Aug-18 09:32N 47°07' W 002°25'0 0.1
2016-Aug-18 08:30N 47°07' W 002°25'0 0.0
2016-Aug-18 07:34N 47°07' W 002°25'0 0.1
2016-Aug-18 06:31N 47°07' W 002°25'2 2.0
2016-Aug-18 05:33N 47°05' W 002°26'9 8.4
2016-Aug-18 04:33N 47°01' W 002°37'10 9.8
2016-Aug-18 03:34N 46°57' W 002°50'1110.5
2016-Aug-18 02:33N 46°53' W 003°04'1010.4
2016-Aug-18 01:33N 46°60' W 003°16'6 5.9
2016-Aug-18 00:33N 47°03' W 003°22'3 3.3
2016-Aug-17 23:33N 47°06' W 003°26'7 6.7
2016-Aug-17 22:33N 47°11' W 003°32'10 9.9
2016-Aug-17 21:33N 47°17' W 003°43'10 9.9
2016-Aug-17 20:32N 47°24' W 003°54'4210.6
2016-Aug-17 16:33N 47°48' W 004°46'1111.3
2016-Aug-17 15:34N 47°55' W 004°59'1010.3
2016-Aug-17 14:33N 48°02' W 005°10'10 9.7
2016-Aug-17 13:34N 48°09' W 005°21'10 9.7
2016-Aug-17 12:33N 48°16' W 005°29'38 9.0
2016-Aug-17 08:22N 48°52' W 005°46'911.5
2016-Aug-17 07:33N 48°58' W 005°35'2210.9
2016-Aug-17 05:32N 49°09' W 005°06'11 9.7
2016-Aug-17 04:25N 49°15' W 004°51'8 9.4
2016-Aug-17 03:34N 49°19' W 004°41'10 9.6
2016-Aug-17 02:34N 49°24' W 004°28'1010.4
2016-Aug-17 01:33N 49°29' W 004°15'1111.3
2016-Aug-17 00:34N 49°35' W 004°00'1212.2
2016-Aug-16 23:33N 49°41' W 003°44'1312.7
2016-Aug-16 22:33N 49°48' W 003°27'1212.2
2016-Aug-16 21:33N 49°54' W 003°11'1111.0
2016-Aug-16 20:33N 49°59' W 002°56'1010.1
2016-Aug-16 19:33N 50°02' W 002°41'9 9.1
2016-Aug-16 18:33N 50°05' W 002°27'9 8.9
2016-Aug-16 17:33N 50°07' W 002°14'9 9.3
2016-Aug-16 16:33N 50°10' W 001°60'1010.5
2016-Aug-16 15:34N 50°13' W 001°44'1211.9
2016-Aug-16 14:33N 50°16' W 001°26'1313.1
2016-Aug-16 13:34N 50°20' W 001°07'1413.9
2016-Aug-16 12:33N 50°23' W 000°45'1313.2
2016-Aug-16 11:33N 50°27' W 000°26'1212.1
2016-Aug-16 10:34N 50°30' W 000°07'1111.4
2016-Aug-16 09:33N 50°33' E 000°10'5511.1
2016-Aug-16 04:33N 51°03' E 001°24'1212.4
2016-Aug-16 03:33N 51°12' E 001°37'1211.8
2016-Aug-16 02:34N 51°24' E 001°32'1111.1
2016-Aug-16 01:33N 51°29' E 001°16'1312.5
2016-Aug-16 00:32N 51°29' E 000°56'1212.0
2016-Aug-15 23:32N 51°30' E 000°37'9 9.5
2016-Aug-15 22:33N 51°27' E 000°22'2 1.9
2016-Aug-15 21:33N 51°28' E 000°20'0 0.0
2016-Aug-15 20:33N 51°28' E 000°20'0 0.0
2016-Aug-15 19:33N 51°28' E 000°20'0 0.0
2016-Aug-15 18:33N 51°28' E 000°20'0 0.0
2016-Aug-15 17:33N 51°28' E 000°20'0 0.0
2016-Aug-15 16:33N 51°28' E 000°20'0 0.0
2016-Aug-15 15:33N 51°28' E 000°20'0 0.0
2016-Aug-15 14:34N 51°28' E 000°20'0 0.0
2016-Aug-15 13:33N 51°28' E 000°20'0 0.0
2016-Aug-15 12:34N 51°28' E 000°20'0 0.0
2016-Aug-15 11:33N 51°28' E 000°20'0 0.0
2016-Aug-15 10:33N 51°28' E 000°20'0 0.0
2016-Aug-15 09:33N 51°28' E 000°20'0 0.0
2016-Aug-15 08:33N 51°28' E 000°20'0 0.0
2016-Aug-15 07:33N 51°28' E 000°20'0 0.0
2016-Aug-15 06:33N 51°28' E 000°20'0 0.0
2016-Aug-15 04:33N 51°28' E 000°20'0 0.0
2016-Aug-15 03:33N 51°28' E 000°20'0 0.0
2016-Aug-15 02:33N 51°28' E 000°20'0 0.0
2016-Aug-15 01:33N 51°28' E 000°20'0 0.0
2016-Aug-15 00:33N 51°28' E 000°20'0 0.0
2016-Aug-14 23:33N 51°28' E 000°20'0 0.0
2016-Aug-14 22:33N 51°28' E 000°20'0 0.0
2016-Aug-14 21:33N 51°28' E 000°20'0 0.0
2016-Aug-14 20:33N 51°28' E 000°20'0 0.0
2016-Aug-14 19:33N 51°28' E 000°20'0 0.0
2016-Aug-14 18:33N 51°28' E 000°20'0 0.0
2016-Aug-14 17:33N 51°28' E 000°20'0 0.0
2016-Aug-14 16:34N 51°28' E 000°20'0 0.0
2016-Aug-14 15:33N 51°28' E 000°20'0 0.0
2016-Aug-14 14:33N 51°28' E 000°20'0 0.0
2016-Aug-14 13:33N 51°28' E 000°20'0 0.0
2016-Aug-14 12:33N 51°28' E 000°20'0 0.0
2016-Aug-14 11:34N 51°28' E 000°20'0 0.0
2016-Aug-14 10:33N 51°28' E 000°20'0 0.0
2016-Aug-14 09:33N 51°28' E 000°20'1 0.6
2016-Aug-14 08:33N 51°27' E 000°20'9 8.9
2016-Aug-14 07:33N 51°30' E 000°34'1111.0
2016-Aug-14 06:33N 51°29' E 000°51'2210.8
2016-Aug-14 04:33N 51°28' E 001°26'3 2.9
2016-Aug-14 03:33N 51°25' E 001°25'0 0.1
2016-Aug-14 02:33N 51°25' E 001°25'0 0.1
2016-Aug-14 01:33N 51°25' E 001°25'0 0.0
2016-Aug-14 00:33N 51°25' E 001°25'0 0.0
2016-Aug-13 23:33N 51°25' E 001°25'0 0.0
2016-Aug-13 22:33N 51°25' E 001°25'0 0.0
2016-Aug-13 21:33N 51°25' E 001°25'0 0.1
2016-Aug-13 20:33N 51°25' E 001°25'0 0.1
2016-Aug-13 19:34N 51°25' E 001°25'  
Track history (hours):
 
Tides and Currents Weather Stations Pressure Air Temp Water Temp Dewpoint Dewpoint Depression Visibility Wind Speed Wind Dir Waves Ship Positions

Kitty C

Last reported at 2016-Aug-23 19:12 UTC. Time now 2016-Aug-24 18:00 UTC.
Position N 41°09' W 008°45'.

Length 106 m; draft 6.9 m.

Type: Cargo ship. MMSI: 235085464.

Date/timePositionNaut miles runAvg speedWind from/ knotsBaromVisibWave heightAir tempDewpointWater temp
2016-Aug-23 19:12N 41°09' W 008°45'0 0.0
2016-Aug-23 18:30N 41°09' W 008°45'  
2016-Aug-21 00:21N 46°54' W 002°54'6 7.4
2016-Aug-20 23:33N 46°57' W 002°47'8 7.9
2016-Aug-20 22:33N 47°02' W 002°37'9 9.0
2016-Aug-20 21:34N 47°05' W 002°25'8 8.2
2016-Aug-20 20:34N 47°12' W 002°18'1110.9
2016-Aug-20 19:33N 47°18' W 002°05'1010.1
2016-Aug-20 18:34N 47°15' W 001°51'7 7.3
2016-Aug-20 17:34N 47°12' W 001°41'3 2.8
2016-Aug-20 16:28N 47°12' W 001°36'0 0.0
2016-Aug-20 15:31N 47°12' W 001°36'0 0.0
2016-Aug-20 14:31N 47°12' W 001°36'0 0.0
2016-Aug-20 13:31N 47°12' W 001°36'0 0.0
2016-Aug-20 12:31N 47°12' W 001°36'0 0.0
2016-Aug-20 11:31N 47°12' W 001°36'0 0.0
2016-Aug-20 10:31N 47°12' W 001°36'0 0.0
2016-Aug-20 09:31N 47°12' W 001°36'0 0.0
2016-Aug-20 08:31N 47°12' W 001°36'0 0.0
2016-Aug-20 07:31N 47°12' W 001°36'0 0.0
2016-Aug-20 06:31N 47°12' W 001°36'0 0.0
2016-Aug-20 05:32N 47°12' W 001°36'0 0.0
2016-Aug-20 04:28N 47°12' W 001°36'0 0.0
2016-Aug-20 03:31N 47°12' W 001°36'0 0.0
2016-Aug-20 02:31N 47°12' W 001°36'0 0.0
2016-Aug-20 01:31N 47°12' W 001°36'0 0.0
2016-Aug-20 00:31N 47°12' W 001°36'0 0.0
2016-Aug-19 23:31N 47°12' W 001°36'0 0.0
2016-Aug-19 22:31N 47°12' W 001°36'0 0.0
2016-Aug-19 21:31N 47°12' W 001°36'0 0.0
2016-Aug-19 20:31N 47°12' W 001°36'0 0.0
2016-Aug-19 19:31N 47°12' W 001°36'0 0.0
2016-Aug-19 18:31N 47°12' W 001°36'0 0.0
2016-Aug-19 17:31N 47°12' W 001°36'0 0.0
2016-Aug-19 16:31N 47°12' W 001°36'0 0.0
2016-Aug-19 15:28N 47°12' W 001°36'0 0.0
2016-Aug-19 14:28N 47°12' W 001°36'0 0.0
2016-Aug-19 13:28N 47°12' W 001°36'0 0.0
2016-Aug-19 12:28N 47°12' W 001°36'0 0.0
2016-Aug-19 11:31N 47°12' W 001°36'0 0.0
2016-Aug-19 10:25N 47°12' W 001°36'0 0.0
2016-Aug-19 09:19N 47°12' W 001°36'0 0.0
2016-Aug-19 08:31N 47°12' W 001°36'0 0.0
2016-Aug-19 07:31N 47°12' W 001°36'0 0.0
2016-Aug-19 06:31N 47°12' W 001°36'0 0.0
2016-Aug-19 05:31N 47°12' W 001°36'0 0.0
2016-Aug-19 04:31N 47°12' W 001°36'0 0.0
2016-Aug-19 03:32N 47°12' W 001°36'0 0.0
2016-Aug-19 02:31N 47°12' W 001°36'0 0.0
2016-Aug-19 01:31N 47°12' W 001°36'0 0.0
2016-Aug-19 00:31N 47°12' W 001°36'0 0.0
2016-Aug-18 23:31N 47°12' W 001°36'0 0.0
2016-Aug-18 22:31N 47°12' W 001°36'0 0.0
2016-Aug-18 21:31N 47°12' W 001°36'0 0.0
2016-Aug-18 20:31N 47°12' W 001°36'0 0.0
2016-Aug-18 19:31N 47°12' W 001°36'0 0.0
2016-Aug-18 18:28N 47°12' W 001°36'0 0.0
2016-Aug-18 17:22N 47°12' W 001°36'0 0.0
2016-Aug-18 15:28N 47°12' W 001°36'1 0.5
2016-Aug-18 13:32N 47°12' W 001°38'10 9.9
2016-Aug-18 12:33N 47°15' W 001°51'1211.9
2016-Aug-18 11:33N 47°18' W 002°08'1111.4
2016-Aug-18 10:33N 47°09' W 002°19'5 4.6
2016-Aug-18 09:32N 47°07' W 002°25'0 0.1
2016-Aug-18 08:30N 47°07' W 002°25'0 0.0
2016-Aug-18 07:34N 47°07' W 002°25'0 0.1
2016-Aug-18 06:31N 47°07' W 002°25'2 2.0
2016-Aug-18 05:33N 47°05' W 002°26'9 8.4
2016-Aug-18 04:33N 47°01' W 002°37'10 9.8
2016-Aug-18 03:34N 46°57' W 002°50'1110.5
2016-Aug-18 02:33N 46°53' W 003°04'1010.4
2016-Aug-18 01:33N 46°60' W 003°16'6 5.9
2016-Aug-18 00:33N 47°03' W 003°22'3 3.3
2016-Aug-17 23:33N 47°06' W 003°26'7 6.7
2016-Aug-17 22:33N 47°11' W 003°32'10 9.9
2016-Aug-17 21:33N 47°17' W 003°43'10 9.9
2016-Aug-17 20:32N 47°24' W 003°54'4210.6
2016-Aug-17 16:33N 47°48' W 004°46'1111.3
2016-Aug-17 15:34N 47°55' W 004°59'1010.3
2016-Aug-17 14:33N 48°02' W 005°10'10 9.7
2016-Aug-17 13:34N 48°09' W 005°21'10 9.7
2016-Aug-17 12:33N 48°16' W 005°29'38 9.0
2016-Aug-17 08:22N 48°52' W 005°46'911.5
2016-Aug-17 07:33N 48°58' W 005°35'2210.9
2016-Aug-17 05:32N 49°09' W 005°06'11 9.7
2016-Aug-17 04:25N 49°15' W 004°51'8 9.4
2016-Aug-17 03:34N 49°19' W 004°41'10 9.6
2016-Aug-17 02:34N 49°24' W 004°28'1010.4
2016-Aug-17 01:33N 49°29' W 004°15'1111.3
2016-Aug-17 00:34N 49°35' W 004°00'1212.2
2016-Aug-16 23:33N 49°41' W 003°44'1312.7
2016-Aug-16 22:33N 49°48' W 003°27'1212.2
2016-Aug-16 21:33N 49°54' W 003°11'1111.0
2016-Aug-16 20:33N 49°59' W 002°56'1010.1
2016-Aug-16 19:33N 50°02' W 002°41'9 9.1
2016-Aug-16 18:33N 50°05' W 002°27'9 8.9
2016-Aug-16 17:33N 50°07' W 002°14'9 9.3
2016-Aug-16 16:33N 50°10' W 001°60'1010.5
2016-Aug-16 15:34N 50°13' W 001°44'1211.9
2016-Aug-16 14:33N 50°16' W 001°26'1313.1
2016-Aug-16 13:34N 50°20' W 001°07'1413.9
2016-Aug-16 12:33N 50°23' W 000°45'1313.2
2016-Aug-16 11:33N 50°27' W 000°26'1212.1
2016-Aug-16 10:34N 50°30' W 000°07'1111.4
2016-Aug-16 09:33N 50°33' E 000°10'5511.1
2016-Aug-16 04:33N 51°03' E 001°24'1212.4
2016-Aug-16 03:33N 51°12' E 001°37'1211.8
2016-Aug-16 02:34N 51°24' E 001°32'1111.1
2016-Aug-16 01:33N 51°29' E 001°16'1312.5
2016-Aug-16 00:32N 51°29' E 000°56'1212.0
2016-Aug-15 23:32N 51°30' E 000°37'9 9.5
2016-Aug-15 22:33N 51°27' E 000°22'2 1.9
2016-Aug-15 21:33N 51°28' E 000°20'0 0.0
2016-Aug-15 20:33N 51°28' E 000°20'0 0.0
2016-Aug-15 19:33N 51°28' E 000°20'0 0.0
2016-Aug-15 18:33N 51°28' E 000°20'0 0.0
2016-Aug-15 17:33N 51°28' E 000°20'0 0.0
2016-Aug-15 16:33N 51°28' E 000°20'0 0.0
2016-Aug-15 15:33N 51°28' E 000°20'0 0.0
2016-Aug-15 14:34N 51°28' E 000°20'0 0.0
2016-Aug-15 13:33N 51°28' E 000°20'0 0.0
2016-Aug-15 12:34N 51°28' E 000°20'0 0.0
2016-Aug-15 11:33N 51°28' E 000°20'0 0.0
2016-Aug-15 10:33N 51°28' E 000°20'0 0.0
2016-Aug-15 09:33N 51°28' E 000°20'0 0.0
2016-Aug-15 08:33N 51°28' E 000°20'0 0.0
2016-Aug-15 07:33N 51°28' E 000°20'0 0.0
2016-Aug-15 06:33N 51°28' E 000°20'0 0.0
2016-Aug-15 04:33N 51°28' E 000°20'0 0.0
2016-Aug-15 03:33N 51°28' E 000°20'0 0.0
2016-Aug-15 02:33N 51°28' E 000°20'0 0.0
2016-Aug-15 01:33N 51°28' E 000°20'0 0.0
2016-Aug-15 00:33N 51°28' E 000°20'0 0.0
2016-Aug-14 23:33N 51°28' E 000°20'0 0.0
2016-Aug-14 22:33N 51°28' E 000°20'0 0.0
2016-Aug-14 21:33N 51°28' E 000°20'0 0.0
2016-Aug-14 20:33N 51°28' E 000°20'0 0.0
2016-Aug-14 19:33N 51°28' E 000°20'0 0.0
2016-Aug-14 18:33N 51°28' E 000°20'0 0.0
2016-Aug-14 17:33N 51°28' E 000°20'0 0.0
2016-Aug-14 16:34N 51°28' E 000°20'0 0.0
2016-Aug-14 15:33N 51°28' E 000°20'0 0.0
2016-Aug-14 14:33N 51°28' E 000°20'0 0.0
2016-Aug-14 13:33N 51°28' E 000°20'0 0.0
2016-Aug-14 12:33N 51°28' E 000°20'0 0.0
2016-Aug-14 11:34N 51°28' E 000°20'0 0.0
2016-Aug-14 10:33N 51°28' E 000°20'0 0.0
2016-Aug-14 09:33N 51°28' E 000°20'1 0.6
2016-Aug-14 08:33N 51°27' E 000°20'9 8.9
2016-Aug-14 07:33N 51°30' E 000°34'1111.0
2016-Aug-14 06:33N 51°29' E 000°51'2210.8
2016-Aug-14 04:33N 51°28' E 001°26'3 2.9
2016-Aug-14 03:33N 51°25' E 001°25'0 0.1
2016-Aug-14 02:33N 51°25' E 001°25'0 0.1
2016-Aug-14 01:33N 51°25' E 001°25'0 0.0
2016-Aug-14 00:33N 51°25' E 001°25'0 0.0
2016-Aug-13 23:33N 51°25' E 001°25'0 0.0
2016-Aug-13 22:33N 51°25' E 001°25'0 0.0
2016-Aug-13 21:33N 51°25' E 001°25'0 0.1
2016-Aug-13 20:33N 51°25' E 001°25'0 0.1
2016-Aug-13 19:34N 51°25' E 001°25'  

Dump ship's entire track history